Home > Products > Valid Products > MTR

000
SAUS44 KLIX 041452
MTRBVE
METAR KBVE 041451Z AUTO 35009G17KT 10SM CLR 19/10 A2996 RMK AO2
SLP144 T01940100 50009





000
SAUS44 KLIX 041352
MTRBVE
METAR KBVE 041351Z AUTO 34013G22KT 10SM CLR 19/10 A2996 RMK AO2
SLP146 T01890100





000
SAUS44 KLIX 041352
MTRBVE
METAR KBVE 041351Z AUTO 34013G22KT 10SM CLR 19/10 A2996 RMK AO2
SLP146 T01890100





000
SAUS44 KLIX 041254
MTRBVE
METAR KBVE 041251Z AUTO 35010G20KT 10SM FEW050 19/11 A2995 RMK AO2
SLP141 T01890106





000
SAUS44 KLIX 041254
MTRBVE
METAR KBVE 041251Z AUTO 35010G20KT 10SM FEW050 19/11 A2995 RMK AO2
SLP141 T01890106





000
SAUS44 KLIX 041152
MTRBVE
METAR KBVE 041151Z AUTO 36009G19KT 10SM BKN048 19/11 A2993 RMK AO2
SLP135 T01890111 10222 20189 53012





000
SAUS44 KLIX 041054
MTRBVE
METAR KBVE 041051Z AUTO 35012G19KT 10SM BKN049 19/13 A2991 RMK AO2
SLP129 T01940128





000
SAUS44 KLIX 041054
MTRBVE
METAR KBVE 041051Z AUTO 35012G19KT 10SM BKN049 19/13 A2991 RMK AO2
SLP129 T01940128





000
SAUS44 KLIX 040952
MTRBVE
METAR KBVE 040951Z AUTO 35009G18KT 10SM CLR 19/14 A2991 RMK AO2
SLP127 T01940144





000
SAUS44 KLIX 040852
MTRBVE
METAR KBVE 040851Z AUTO 35010G16KT 330V030 10SM CLR 20/15 A2990 RMK
AO2 SLP123 T02000150 56007





000
SAUS44 KLIX 040752
MTRBVE
METAR KBVE 040751Z AUTO 35008KT 10SM BKN055 21/16 A2990 RMK AO2
SLP124 T02110161





000
SAUS44 KLIX 040654
MTRBVE
METAR KBVE 040651Z AUTO 35008G14KT 10SM FEW022 SCT028 OVC046 21/17
A2991 RMK AO2 SLP128 T02110167





000
SAUS44 KLIX 040552
MTRBVE
METAR KBVE 040551Z AUTO 33007KT 10SM BKN044 22/19 A2992 RMK AO2
SLP130 T02220189 10228 20222 402560222 58002 $





000
SAUS44 KLIX 040552
MTRBVE
METAR KBVE 040551Z AUTO 33007KT 10SM BKN044 22/19 A2992 RMK AO2
SLP130 T02220189 10228 20222 402560222 58002 $





000
SAUS44 KLIX 040452
MTRBVE
METAR KBVE 040451Z AUTO 34006KT 10SM OVC037 22/18 A2992 RMK AO2
SLP131 T02220183 $





000
SAUS44 KLIX 040452
MTRBVE
METAR KBVE 040451Z AUTO 34006KT 10SM OVC037 22/18 A2992 RMK AO2
SLP131 T02220183 $





000
SAUS44 KLIX 040352
MTRBVE
METAR KBVE 040351Z AUTO 33005KT 10SM OVC036 22/19 A2992 RMK AO2
SLP131 T02220194





000
SAUS44 KLIX 040352
MTRBVE
METAR KBVE 040351Z AUTO 33005KT 10SM OVC036 22/19 A2992 RMK AO2
SLP131 T02220194





000
SAUS44 KLIX 040252
MTRBVE
METAR KBVE 040251Z AUTO 33005KT 10SM OVC037 22/19 A2992 RMK AO2
SLP132 T02220194 53009





000
SAUS44 KLIX 040252
MTRBVE
METAR KBVE 040251Z AUTO 33005KT 10SM OVC037 22/19 A2992 RMK AO2
SLP132 T02220194 53009





000
SAUS44 KLIX 040152
MTRBVE
METAR KBVE 040151Z AUTO 33006KT 10SM OVC038 23/19 A2991 RMK AO2
SLP129 T02280194





000
SAUS44 KLIX 040052
MTRBVE
METAR KBVE 040051Z AUTO 33003KT 8SM OVC038 22/21 A2990 RMK AO2
SLP124 T02220206





000
SAUS44 KLIX 040052
MTRBVE
METAR KBVE 040051Z AUTO 33003KT 8SM OVC038 22/21 A2990 RMK AO2
SLP124 T02220206





000
SAUS44 KLIX 032352
MTRBVE
METAR KBVE 032351Z AUTO 03003KT 8SM BKN039 OVC049 23/21 A2989 RMK
AO2 SLP122 T02280206 10256 20228 50000





000
SAUS44 KLIX 032252
MTRBVE
METAR KBVE 032251Z AUTO 00000KT 7SM FEW038 SCT046 OVC060 23/21 A2990
RMK AO2 SLP123 T02330206





000
SAUS44 KLIX 032152
MTRBVE
METAR KBVE 032151Z AUTO 05003KT 8SM OVC048 24/21 A2989 RMK AO2
SLP122 T02390206





000
SAUS44 KLIX 032052
MTRBVE
METAR KBVE 032051Z AUTO 04004KT 9SM OVC055 25/21 A2989 RMK AO2
SLP122 T02500211 56017





000
SAUS44 KLIX 031952
MTRBVE
METAR KBVE 031951Z AUTO VRB04KT 9SM FEW011 OVC055 24/21 A2991 RMK
AO2 SLP127 T02440211





000
SAUS44 KLIX 031852
MTRBVE
METAR KBVE 031851Z AUTO VRB04KT 9SM OVC060 25/21 A2992 RMK AO2
SLP133 T02500206





000
SAUS44 KLIX 031852
MTRBVE
METAR KBVE 031851Z AUTO VRB04KT 9SM OVC060 25/21 A2992 RMK AO2
SLP133 T02500206





000
SAUS44 KLIX 031826
MTRBVE
SPECI KBVE 031825Z AUTO 04006KT 9SM FEW016 BKN060 25/21 A2993 RMK
AO2 T02500211





000
SAUS44 KLIX 031814
MTRBVE
SPECI KBVE 031812Z AUTO VRB04KT 8SM BKN015 25/21 A2993 RMK AO2
T02500211





000
SAUS44 KLIX 031814
MTRBVE
SPECI KBVE 031812Z AUTO VRB04KT 8SM BKN015 25/21 A2993 RMK AO2
T02500211





000
SAUS44 KLIX 031753
MTRBVE
METAR KBVE 031751Z AUTO VRB05KT 8SM OVC014 25/21 A2994 RMK AO2
SLP139 T02500211 10250 20222 58004





000
SAUS44 KLIX 031731
MTRBVE
SPECI KBVE 031730Z AUTO VRB05KT 8SM BKN012 24/21 A2995 RMK AO2
T02390206





000
SAUS44 KLIX 031731
MTRBVE
SPECI KBVE 031730Z AUTO VRB05KT 8SM BKN012 24/21 A2995 RMK AO2
T02390206





000
SAUS44 KLIX 031704 COR
MTRBVE
SPECI KBVE 031702Z AUTO 02006KT 7SM SCT012 24/21 A2995 RMK AO2
T02440211





000
SAUS44 KLIX 031656
MTRBVE
METAR KBVE 031651Z AUTO 01007KT 7SM BKN012 24/21 A2996 RMK AO2
SLP143 T02440211





000
SAUS44 KLIX 031646 COR
MTRBVE
SPECI KBVE 031641Z AUTO 01006KT 7SM BKN012 24/21 A2996 RMK AO2
T02440211





000
SAUS44 KLIX 031646 COR
MTRBVE
SPECI KBVE 031641Z AUTO 01006KT 7SM BKN012 24/21 A2996 RMK AO2
T02440211





000
SAUS44 KLIX 031643 COR
MTRBVE
SPECI KBVE 031641Z AUTO 01006KT 7SM BKN012 24/21 A2996 RMK AO2
T02440211





000
SAUS44 KLIX 031643 COR
MTRBVE
SPECI KBVE 031641Z AUTO 01006KT 7SM BKN012 24/21 A2996 RMK AO2
T02440211





000
SAUS44 KLIX 031554
MTRBVE
METAR KBVE 031551Z AUTO 36006KT 7SM SCT011 24/21 A2995 RMK AO2
SLP143 T02390211





000
SAUS44 KLIX 031550
MTRBVE
SPECI KBVE 031547Z AUTO 36007KT 7SM SCT011 24/21 A2995 RMK AO2





000
SAUS44 KLIX 031550
MTRBVE
SPECI KBVE 031547Z AUTO 36007KT 7SM SCT011 24/21 A2995 RMK AO2





000
SAUS44 KLIX 031533 COR
MTRBVE
SPECI KBVE 031529Z AUTO 34009KT 5SM BR BKN010 23/21 A2995 RMK AO2
T02330211





000
SAUS44 KLIX 031531 COR
MTRBVE
SPECI KBVE 031529Z AUTO 34009KT 5SM BR BKN010 23/21 A2995 RMK AO2
T02330211





000
SAUS44 KLIX 031530 COR
MTRBVE
SPECI KBVE 031529Z AUTO 34009KT 5SM BR BKN010 23/21 A2995 RMK AO2
T02330211





000
SAUS44 KLIX 031524 COR
MTRBVE
SPECI KBVE 031520Z AUTO 36006KT 5SM BR SCT010 SCT060 24/22 A2995 RMK
AO2 T02390217





000
SAUS44 KLIX 031522 COR
MTRBVE
SPECI KBVE 031520Z AUTO 36006KT 5SM BR SCT010 SCT060 24/22 A2995 RMK
AO2 T02390217





000
SAUS44 KLIX 031513
MTRBVE
SPECI KBVE 031511Z AUTO 35006KT 6SM BR BKN010 BKN060 24/22 A2995 RMK
AO2 CIG 008V012 T02390217





000
SAUS44 KLIX 031452
MTRBVE
METAR KBVE 031451Z AUTO 35007KT 7SM SCT010 SCT031 BKN060 24/22 A2995
RMK AO2 SLP142 T02390217 51010





000
SAUS44 KLIX 031352
MTRBVE
METAR KBVE 031351Z AUTO 35004KT 5SM BR OVC060 23/22 A2995 RMK AO2
SLP140 T02330217





000
SAUS44 KLIX 031323
MTRBVE
SPECI KBVE 031322Z AUTO 00000KT 4SM BR BKN030 OVC060 23/22 A2995 RMK
AO2 T02330217





000
SAUS44 KLIX 031252
MTRBVE
METAR KBVE 031251Z AUTO 00000KT 5SM BR OVC029 23/21 A2994 RMK AO2
SLP139 T02280211





000
SAUS44 KLIX 031231
MTRBVE
SPECI KBVE 031229Z AUTO 00000KT 5SM BR OVC029 23/21 A2994 RMK AO2
T02280211





000
SAUS44 KLIX 031152
MTRBVE
METAR KBVE 031151Z AUTO VRB04KT 6SM BR OVC044 22/21 A2992 RMK AO2
RAE31 SLP133 P0001 60001 70001 T02220206 10233 20222 53007





000
SAUS44 KLIX 031152
MTRBVE
METAR KBVE 031151Z AUTO VRB04KT 6SM BR OVC044 22/21 A2992 RMK AO2
RAE31 SLP133 P0001 60001 70001 T02220206 10233 20222 53007





000
SAUS44 KLIX 031053 COR
MTRBVE
METAR KBVE 031051Z AUTO 00000KT 5SM -RA BR OVC045 22/21 A2991 RMK
AO2 RAB44 SLP127 P0000 T02220211





000
SAUS44 KLIX 030952
MTRBVE
METAR KBVE 030951Z AUTO 33003KT 4SM BR SCT030 SCT037 OVC048 22/21
A2991 RMK AO2 SLP126 T02220211





000
SAUS44 KLIX 030853 COR
MTRBVE
METAR KBVE 030851Z AUTO 33003KT 8SM BKN032 BKN040 OVC047 22/21 A2990
RMK AO2 SLP126 T02220206 56012





000
SAUS44 KLIX 030853 COR
MTRBVE
METAR KBVE 030851Z AUTO 33003KT 8SM BKN032 BKN040 OVC047 22/21 A2990
RMK AO2 SLP126 T02220206 56012





000
SAUS44 KLIX 030752
MTRBVE
METAR KBVE 030751Z AUTO 00000KT 9SM OVC032 23/21 A2991 RMK AO2
SLP128 T02330206





000
SAUS44 KLIX 030652
MTRBVE
METAR KBVE 030651Z AUTO 20004KT 10SM OVC033 23/21 A2992 RMK AO2
SLP132 T02330206





000
SAUS44 KLIX 030652
MTRBVE
METAR KBVE 030651Z AUTO 20004KT 10SM OVC033 23/21 A2992 RMK AO2
SLP132 T02330206





000
SAUS44 KLIX 030553 COR
MTRBVE
METAR KBVE 030551Z AUTO 18003KT 8SM CLR 23/22 A2994 RMK AO2 SLP138
T02280217 10244 20222 402720222 58011





000
SAUS44 KLIX 030553 COR
MTRBVE
METAR KBVE 030551Z AUTO 18003KT 8SM CLR 23/22 A2994 RMK AO2 SLP138
T02280217 10244 20222 402720222 58011





000
SAUS44 KLIX 030516
MTRBVE
SPECI KBVE 030515Z AUTO 18003KT 4SM BR CLR 23/22 A2995 RMK AO2
T02280222





000
SAUS44 KLIX 030501
MTRBVE
SPECI KBVE 030501Z AUTO 16003KT 2 1/2SM BR CLR 23/22 A2995 RMK AO2
T02280222





000
SAUS44 KLIX 030501
MTRBVE
SPECI KBVE 030501Z AUTO 16003KT 2 1/2SM BR CLR 23/22 A2995 RMK AO2
T02280222





000
SAUS44 KLIX 030452
MTRBVE
METAR KBVE 030451Z AUTO 14003KT 1 1/4SM BR CLR 22/22 A2995 RMK AO2
SLP143 T02220217





000
SAUS44 KLIX 030449 COR
MTRBVE
SPECI KBVE 030445Z AUTO 00000KT 1 3/4SM BR CLR 23/22 A2996 RMK AO2





000
SAUS44 KLIX 030447 COR
MTRBVE
SPECI KBVE 030445Z AUTO 00000KT 1 3/4SM BR CLR 23/22 A2996 RMK AO2





000
SAUS44 KLIX 030352
MTRBVE
METAR KBVE 030351Z AUTO 00000KT 5SM BR CLR 23/22 A2997 RMK AO2
SLP147 T02280222





000
SAUS44 KLIX 030252
MTRBVE
METAR KBVE 030251Z AUTO 00000KT 6SM BR CLR 24/23 A2997 RMK AO2
SLP149 T02390228 53022





000
SAUS44 KLIX 030252
MTRBVE
METAR KBVE 030251Z AUTO 00000KT 6SM BR CLR 24/23 A2997 RMK AO2
SLP149 T02390228 53022





000
SAUS44 KLIX 030157 COR
MTRBVE
METAR KBVE 030151Z AUTO 13003KT 6SM BR CLR 23/23 A2994 RMK AO2
SLP139 T02330228





000
SAUS44 KLIX 030156 COR
MTRBVE
METAR KBVE 030151Z AUTO 13003KT 6SM BR CLR 23/23 A2994 RMK AO2
SLP139 T02330228





000
SAUS44 KLIX 030156 COR
MTRBVE
METAR KBVE 030151Z AUTO 13003KT 6SM BR CLR 23/23 A2994 RMK AO2
SLP139 T02330228





000
SAUS44 KLIX 030153 COR
MTRBVE
METAR KBVE 030151Z AUTO 13003KT 6SM BR CLR 23/23 A2994 RMK AO2
SLP139 T02330228





000
SAUS44 KLIX 030153 COR
MTRBVE
METAR KBVE 030151Z AUTO 13003KT 6SM BR CLR 23/23 A2994 RMK AO2
SLP139 T02330228





000
SAUS44 KLIX 030152
MTRBVE
METAR KBVE 030151Z AUTO 13003KT 6SM BR CLR 23/23 A2994 RMK AO2
SLP139 T02330228





000
SAUS44 KLIX 030056 COR
MTRBVE
METAR KBVE 030051Z AUTO 13003KT 6SM BR FEW020 24/23 A2991 RMK AO2
SLP127 T02390228





000
SAUS44 KLIX 030054 COR
MTRBVE
METAR KBVE 030051Z AUTO 13003KT 6SM BR FEW020 24/23 A2991 RMK AO2
SLP127 T02390228





000
SAUS44 KLIX 030053 COR
MTRBVE
METAR KBVE 030051Z AUTO 13003KT 6SM BR FEW020 24/23 A2991 RMK AO2
SLP127 T02390228





000
SAUS44 KLIX 030052
MTRBVE
METAR KBVE 030051Z AUTO 13003KT 6SM BR FEW020 24/23 A2991 RMK AO2
SLP127 T02390228





000
SAUS44 KLIX 030050
MTRBVE
SPECI KBVE 030047Z AUTO 13004KT 6SM BR SCT022 24/23 A2991 RMK AO2





000
SAUS44 KLIX 030050
MTRBVE
SPECI KBVE 030047Z AUTO 13004KT 6SM BR SCT022 24/23 A2991 RMK AO2





000
SAUS44 KLIX 030030
MTRBVE
SPECI KBVE 030029Z AUTO 12004KT 5SM BR BKN022 24/23 A2990 RMK AO2
T02390228





000
SAUS44 KLIX 022352
MTRBVE
METAR KBVE 022351Z AUTO 12004KT 7SM CLR 24/23 A2989 RMK AO2 RAE2259
SLP121 P0000 60000 T02440228 10272 20244 58021





000
SAUS44 KLIX 022352
MTRBVE
METAR KBVE 022351Z AUTO 12004KT 7SM CLR 24/23 A2989 RMK AO2 RAE2259
SLP121 P0000 60000 T02440228 10272 20244 58021





000
SAUS44 KLIX 022252
MTRBVE
METAR KBVE 022251Z AUTO 17004KT 6SM -RA BR FEW055 FEW080 SCT110
24/23 A2991 RMK AO2 RAB30 SLP128 P0000 T02440233





000
SAUS44 KLIX 022152
MTRBVE
METAR KBVE 022151Z AUTO 19007KT 7SM CLR 25/23 A2995 RMK AO2 SLP141
T02500228





000
SAUS44 KLIX 022052
MTRBVE
METAR KBVE 022051Z AUTO 18006KT 8SM CLR 26/23 A2995 RMK AO2 SLP142
T02560228 58014





000
SAUS44 KLIX 022052
MTRBVE
METAR KBVE 022051Z AUTO 18006KT 8SM CLR 26/23 A2995 RMK AO2 SLP142
T02560228 58014





000
SAUS44 KLIX 021952
MTRBVE
METAR KBVE 021951Z AUTO 19006KT 10SM CLR 27/22 A2996 RMK AO2 SLP146
T02670217





000
SAUS44 KLIX 021852
MTRBVE
METAR KBVE 021851Z AUTO 19006KT 10SM CLR 27/22 A2998 RMK AO2 SLP152
T02720222





000
SAUS44 KLIX 021756 COR
MTRBVE
METAR KBVE 021751Z AUTO 17006KT 9SM FEW023 SCT038 SCT046 27/23 A2999
RMK AO2 SLP156 T02720228 10272 20222 58007





000
SAUS44 KLIX 021756 COR
MTRBVE
METAR KBVE 021751Z AUTO 17006KT 9SM FEW023 SCT038 SCT046 27/23 A2999
RMK AO2 SLP156 T02720228 10272 20222 58007





000
SAUS44 KLIX 021754 COR
MTRBVE
METAR KBVE 021751Z AUTO 17006KT 9SM FEW023 SCT038 SCT046 27/23 A2999
RMK AO2 SLP156 T02720228 10272 20222 58007





000
SAUS44 KLIX 021753 COR
MTRBVE
METAR KBVE 021751Z AUTO 17006KT 9SM FEW023 SCT038 SCT046 27/23 A2999
RMK AO2 SLP156 T02720228 10272 20222 58007





000
SAUS44 KLIX 021711
MTRBVE
SPECI KBVE 021710Z AUTO 10003KT 8SM SCT019 SCT027 BKN036 27/23 A3000
RMK AO2 T02670233 $





000
SAUS44 KLIX 021711
MTRBVE
SPECI KBVE 021710Z AUTO 10003KT 8SM SCT019 SCT027 BKN036 27/23 A3000
RMK AO2 T02670233 $





000
SAUS44 KLIX 021654
MTRBVE
METAR KBVE 021651Z AUTO 05005KT 8SM FEW015 BKN025 OVC038 26/23 A3001
RMK AO2 SLP161 T02610233 $





000
SAUS44 KLIX 021654
MTRBVE
METAR KBVE 021651Z AUTO 05005KT 8SM FEW015 BKN025 OVC038 26/23 A3001
RMK AO2 SLP161 T02610233 $





000
SAUS44 KLIX 021601
MTRBVE
SPECI KBVE 021600Z AUTO 06005KT 8SM FEW017 BKN023 OVC031 26/23 A3001
RMK AO2 T02610228





000
SAUS44 KLIX 021552
MTRBVE
METAR KBVE 021551Z AUTO 09005KT 8SM SCT021 BKN030 OVC035 26/23 A3001
RMK AO2 SLP162 T02610228





000
SAUS44 KLIX 021549
MTRBVE
SPECI KBVE 021547Z AUTO 09005KT 8SM SCT021 BKN026 OVC032 26/23 A3001
RMK AO2





000
SAUS44 KLIX 021549
MTRBVE
SPECI KBVE 021547Z AUTO 09005KT 8SM SCT021 BKN026 OVC032 26/23 A3001
RMK AO2





000
SAUS44 KLIX 021452
MTRBVE
METAR KBVE 021451Z AUTO 10006KT 8SM FEW028 26/23 A2999 RMK AO2
SLP155 T02610233 51019





000
SAUS44 KLIX 021446
MTRBVE
SPECI KBVE 021444Z AUTO 10008KT 8SM SCT028 26/23 A2999 RMK AO2
T02560228





000
SAUS44 KLIX 021353
MTRBVE
METAR KBVE 021351Z AUTO 08005KT 9SM BKN022 OVC026 24/22 A2998 RMK
AO2 SLP151 T02440217





000
SAUS44 KLIX 021315
MTRBVE
SPECI KBVE 021314Z AUTO 07004KT 9SM BKN019 23/21 A2997 RMK AO2
T02330211





000
SAUS44 KLIX 021252
MTRBVE
METAR KBVE 021251Z AUTO 07006KT 8SM FEW022 23/21 A2996 RMK AO2
SLP143 T02280211





000
SAUS44 KLIX 021203
MTRBVE
SPECI KBVE 021158Z AUTO 06004KT 9SM FEW016 23/21 A2994 RMK AO2
T02280206





000
SAUS44 KLIX 021152
MTRBVE
METAR KBVE 021151Z AUTO 06005KT 9SM BKN016 22/21 A2993 RMK AO2
SLP135 60000 70054 T02220206 10244 20222 53007





000
SAUS44 KLIX 021128
MTRBVE
SPECI KBVE 021126Z AUTO 07004KT 9SM BKN016 22/21 A2992 RMK AO2
T02220206





000
SAUS44 KLIX 021055
MTRBVE
METAR KBVE 021051Z AUTO 03004KT 8SM FEW017 22/21 A2991 RMK AO2
SLP127 T02220211





000
SAUS44 KLIX 021044
MTRBVE
SPECI KBVE 021043Z AUTO 07003KT 8SM SCT015 23/21 A2990 RMK AO2
T02280211





000
SAUS44 KLIX 021025
MTRBVE
SPECI KBVE 021024Z AUTO 03003KT 8SM BKN015 23/22 A2992 RMK AO2
T02330217





000
SAUS44 KLIX 021013
MTRBVE
SPECI KBVE 021012Z AUTO 35003KT 9SM SCT015 24/22 A2992 RMK AO2
T02390222





000
SAUS44 KLIX 020956 COR
MTRBVE
METAR KBVE 020951Z AUTO 00000KT 9SM BKN015 24/22 A2992 RMK AO2
SLP131 T02440222





000
SAUS44 KLIX 020954 COR
MTRBVE
METAR KBVE 020951Z AUTO 00000KT 9SM BKN015 24/22 A2992 RMK AO2
SLP131 T02440222





000
SAUS44 KLIX 020954 COR
MTRBVE
METAR KBVE 020951Z AUTO 00000KT 9SM BKN015 24/22 A2992 RMK AO2
SLP131 T02440222





000
SAUS44 KLIX 020914
MTRBVE
SPECI KBVE 020913Z AUTO 10SM BKN010 24/22 A2992 RMK AO2 T02440222





000
SAUS44 KLIX 020914
MTRBVE
SPECI KBVE 020913Z AUTO 10SM BKN010 24/22 A2992 RMK AO2 T02440222





000
SAUS44 KLIX 020852
MTRBVE
METAR KBVE 020851Z AUTO 33011KT 9SM SCT009 23/21 A2991 RMK AO2
SLP128 60000 T02280211 53005





000
SAUS44 KLIX 020752
MTRBVE
METAR KBVE 020751Z AUTO 17015G22KT 10SM CLR 24/22 A2987 RMK AO2 PK
WND 18028/0654 SLP115 T02390222





000
SAUS44 KLIX 020752
MTRBVE
METAR KBVE 020751Z AUTO 17015G22KT 10SM CLR 24/22 A2987 RMK AO2 PK
WND 18028/0654 SLP115 T02390222





000
SAUS44 KLIX 020652
MTRBVE
METAR KBVE 020651Z AUTO 18019G26KT 10SM CLR 24/22 A2989 RMK AO2 PK
WND 16029/0620 RAE01 SLP120 P0000 T02390217





000
SAUS44 KLIX 020552
MTRBVE
METAR KBVE 020551Z AUTO 16020G28KT 10SM -RA FEW110 24/22 A2990 RMK
AO2 PK WND 15028/0532 RAE28B33 SLP123 P0000 60014 T02390222 10239
20211 402610206 58035





000
SAUS44 KLIX 020552
MTRBVE
METAR KBVE 020551Z AUTO 16020G28KT 10SM -RA FEW110 24/22 A2990 RMK
AO2 PK WND 15028/0532 RAE28B33 SLP123 P0000 60014 T02390222 10239
20211 402610206 58035





000
SAUS44 KLIX 020452
MTRBVE
METAR KBVE 020451Z AUTO 15016G22KT 10SM -RA FEW110 23/22 A2995 RMK
AO2 PK WND 15026/0410 RAE28B50 SLP141 P0000 T02330217





000
SAUS44 KLIX 020452
MTRBVE
METAR KBVE 020451Z AUTO 15016G22KT 10SM -RA FEW110 23/22 A2995 RMK
AO2 PK WND 15026/0410 RAE28B50 SLP141 P0000 T02330217





000
SAUS44 KLIX 020352
MTRBVE
METAR KBVE 020351Z AUTO 15009KT 10SM -RA FEW120 22/19 A2997 RMK AO2
SLP147 P0002 T02170194





000
SAUS44 KLIX 020252
MTRBVE
METAR KBVE 020251Z AUTO 17013KT 10SM -RA SCT090 BKN110 22/19 A3000
RMK AO2 SLP158 P0001 60012 T02220189 53004





000
SAUS44 KLIX 020252
MTRBVE
METAR KBVE 020251Z AUTO 17013KT 10SM -RA SCT090 BKN110 22/19 A3000
RMK AO2 SLP158 P0001 60012 T02220189 53004





000
SAUS44 KLIX 020152
MTRBVE
METAR KBVE 020151Z AUTO 00000KT 9SM -RA SCT090 OVC110 22/18 A2999
RMK AO2 SLP156 P0002 T02170178





000
SAUS44 KLIX 020052
MTRBVE
METAR KBVE 020051Z AUTO 36005KT 9SM -RA OVC110 21/19 A2997 RMK AO2
SLP149 P0009 T02110189





000
SAUS44 KLIX 012352
MTRBVE
METAR KBVE 012351Z AUTO 36007KT 5SM -RA BR FEW050 BKN085 OVC110
21/19 A2999 RMK AO2 SLP153 P0014 60040 T02110194 10250 20206 53001





000
SAUS44 KLIX 012352
MTRBVE
METAR KBVE 012351Z AUTO 36007KT 5SM -RA BR FEW050 BKN085 OVC110
21/19 A2999 RMK AO2 SLP153 P0014 60040 T02110194 10250 20206 53001





000
SAUS44 KLIX 012343
MTRBVE
SPECI KBVE 012342Z AUTO 36007KT 3SM RA BR FEW035 BKN070 OVC110 21/19
A2999 RMK AO2 P0012 T02060194





000
SAUS44 KLIX 012331
MTRBVE
SPECI KBVE 012330Z AUTO 01008G16KT 1 3/4SM +RA BR SCT032 BKN040
OVC065 21/19 A3000 RMK AO2 P0007 T02110194





000
SAUS44 KLIX 012252
MTRBVE
METAR KBVE 012251Z AUTO 35011KT 5SM -RA BR BKN060 BKN075 OVC100
21/19 A2998 RMK AO2 SLP153 P0010 T02060194





000
SAUS44 KLIX 012211
MTRBVE
SPECI KBVE 012210Z AUTO 01008G18KT 5SM -RA BR FEW038 BKN075 OVC100
21/19 A2998 RMK AO2 P0007 T02110194





000
SAUS44 KLIX 012154
MTRBVE
METAR KBVE 012151Z AUTO 02011G18KT 2 1/2SM +RA BR BKN037 BKN045
OVC075 21/20 A2998 RMK AO2 SLP151 P0015 T02110200





000
SAUS44 KLIX 012138 COR
MTRBVE
SPECI KBVE 012134Z AUTO 01010G20KT 3SM RA BR FEW027 BKN034 OVC070
21/20 A2997 RMK AO2 P0011 T02110200





000
SAUS44 KLIX 012137 COR
MTRBVE
SPECI KBVE 012134Z AUTO 01010G20KT 3SM RA BR FEW027 BKN034 OVC070
21/20 A2997 RMK AO2 P0011 T02110200





000
SAUS44 KLIX 012052
MTRBVE
METAR KBVE 012051Z AUTO 36009G18KT 330V040 7SM -RA FEW008 BKN016
OVC022 21/20 A2998 RMK AO2 RAB01 SLP152 P0001 60001 T02110200 50001





000
SAUS44 KLIX 012050
MTRBVE
SPECI KBVE 012049Z AUTO 36008G19KT 6SM -RA BR FEW008 BKN016 OVC022
21/20 A2998 RMK AO2 RAB01 P0001





000
SAUS44 KLIX 012039
MTRBVE
SPECI KBVE 012038Z AUTO 36011G21KT 9SM -RA SCT008 OVC014 21/20 A2997
RMK AO2 RAB01 P0000 T02110200





000
SAUS44 KLIX 012020
MTRBVE
SPECI KBVE 012018Z AUTO 34014G24KT 7SM -RA BKN008 BKN090 21/20 A2998
RMK AO2 RAB01 P0000 T02110200





000
SAUS44 KLIX 012012 COR
MTRBVE
SPECI KBVE 012009Z AUTO 35010G20KT 6SM -RA BR SCT008 BKN090 22/21
A2998 RMK AO2 RAB01 P0000 T02220206





000
SAUS44 KLIX 012011 COR
MTRBVE
SPECI KBVE 012009Z AUTO 35010G20KT 6SM -RA BR SCT008 BKN090 22/21
A2998 RMK AO2 RAB01 P0000 T02220206





000
SAUS44 KLIX 011952
MTRBVE
METAR KBVE 011951Z AUTO 05006KT 5SM BR FEW022 BKN090 23/22 A2998 RMK
AO2 SLP152 T02330222





000
SAUS44 KLIX 011852
MTRBVE
METAR KBVE 011851Z AUTO 08004KT 8SM FEW028 BKN070 BKN120 24/22 A2998
RMK AO2 SLP151 T02440222





000
SAUS44 KLIX 011852
MTRBVE
METAR KBVE 011851Z AUTO 08004KT 8SM FEW028 BKN070 BKN120 24/22 A2998
RMK AO2 SLP151 T02440222





000
SAUS44 KLIX 011829 COR
MTRBVE
SPECI KBVE 011823Z AUTO 10003KT 8SM SCT027 BKN120 25/23 A2997 RMK
AO2 T02500228





000
SAUS44 KLIX 011829 COR
MTRBVE
SPECI KBVE 011823Z AUTO 10003KT 8SM SCT027 BKN120 25/23 A2997 RMK
AO2 T02500228





000
SAUS44 KLIX 011828 COR
MTRBVE
SPECI KBVE 011823Z AUTO 10003KT 8SM SCT027 BKN120 25/23 A2997 RMK
AO2 T02500228





000
SAUS44 KLIX 011827 COR
MTRBVE
SPECI KBVE 011823Z AUTO 10003KT 8SM SCT027 BKN120 25/23 A2997 RMK
AO2 T02500228





000
SAUS44 KLIX 011752
MTRBVE
METAR KBVE 011751Z AUTO 12007KT 8SM FEW014 BKN025 25/23 A2995 RMK
AO2 SLP142 T02500228 10261 20239 51002





000
SAUS44 KLIX 011735
MTRBVE
SPECI KBVE 011733Z AUTO 12009KT 8SM FEW014 BKN025 25/23 A2995 RMK
AO2 T02500228





000
SAUS44 KLIX 011714
MTRBVE
SPECI KBVE 011710Z AUTO 13008G18KT 8SM FEW014 SCT027 26/23 A2995 RMK
AO2 T02560228





000
SAUS44 KLIX 011657 COR
MTRBVE
METAR KBVE 011651Z AUTO 13009KT 8SM SCT015 SCT020 BKN025 26/23 A2995
RMK AO2 SLP142 T02560228





000
SAUS44 KLIX 011655 COR
MTRBVE
METAR KBVE 011651Z AUTO 13009KT 8SM SCT015 SCT020 BKN025 26/23 A2995
RMK AO2 SLP142 T02560228





000
SAUS44 KLIX 011654 COR
MTRBVE
METAR KBVE 011651Z AUTO 13009KT 8SM SCT015 SCT020 BKN025 26/23 A2995
RMK AO2 SLP142 T02560228





000
SAUS44 KLIX 011648
MTRBVE
SPECI KBVE 011646Z AUTO 12011G17KT 8SM BKN015 BKN020 BKN025 26/23
A2995 RMK AO2





000
SAUS44 KLIX 011636
MTRBVE
SPECI KBVE 011634Z AUTO 13010KT 8SM BKN014 BKN023 26/23 A2995 RMK
AO2 T02560228





000
SAUS44 KLIX 011627
MTRBVE
SPECI KBVE 011626Z AUTO 13009KT 8SM BKN016 BKN025 26/23 A2995 RMK
AO2 T02560228





000
SAUS44 KLIX 011627
MTRBVE
SPECI KBVE 011626Z AUTO 13009KT 8SM BKN016 BKN025 26/23 A2995 RMK
AO2 T02560228





000
SAUS44 KLIX 011613
MTRBVE
SPECI KBVE 011612Z AUTO 12008KT 9SM BKN014 BKN027 26/23 A2995 RMK
AO2 T02610228





000
SAUS44 KLIX 011552
MTRBVE
METAR KBVE 011551Z AUTO 14010G18KT 9SM SCT014 26/23 A2995 RMK AO2
SLP140 T02610228





000
SAUS44 KLIX 011552
MTRBVE
METAR KBVE 011551Z AUTO 14010G18KT 9SM SCT014 26/23 A2995 RMK AO2
SLP140 T02610228





000
SAUS44 KLIX 011538
MTRBVE
SPECI KBVE 011537Z AUTO 14012G20KT 9SM SCT013 BKN024 26/23 A2994 RMK
AO2 T02610233





000
SAUS44 KLIX 011538
MTRBVE
SPECI KBVE 011537Z AUTO 14012G20KT 9SM SCT013 BKN024 26/23 A2994 RMK
AO2 T02610233





    US Dept of Commerce
    National Oceanic and Atmospheric Administration
    National Weather Service
    1325 East West Highway
    Silver Spring, MD 20910
    Page Author: NWS Internet Services Team
Disclaimer
Information Quality
Credits
Glossary
Privacy Policy
Freedom of Information Act (FOIA)
About Us
Career Opportunities